Time,TemperatureF,DewpointF,PressureIn,WindDirection,WindDirectionDegrees,WindSpeedMPH,WindSpeedGustMPH,Humidity,HourlyPrecipIn,Conditions,Clouds,dailyrainin,SoftwareType,DateUTC
2013-03-02 00:00:00,36.1,28.0,28.83,NW,315,0.0,0.0,72,0.00,CLR,SKC,0.00,WeatherDisplay:10.37,2013-03-02 05:00:00,
2013-03-02 00:01:00,36.1,28.0,28.84,NW,315,0.0,0.0,72,0.00,CLR,SKC,0.00,WeatherDisplay:10.37,2013-03-02 05:01:00,
2013-03-02 00:06:00,36.1,28.0,28.83,North,0,0.0,0.0,72,0.00,CLR,SKC,0.00,WeatherDisplay:10.37,2013-03-02 05:06:00,
2013-03-02 00:11:00,36.3,28.2,28.84,NW,315,0.0,0.0,72,0.00,CLR,SKC,0.00,WeatherDisplay:10.37,2013-03-02 05:11:00,
2013-03-02 00:16:00,36.1,28.0,28.84,NW,315,0.0,0.0,72,0.00,CLR,SKC,0.00,WeatherDisplay:10.37,2013-03-02 05:16:00,
2013-03-02 00:21:00,36.0,28.1,28.83,NW,315,0.0,0.0,73,0.00,CLR,SKC,0.00,WeatherDisplay:10.37,2013-03-02 05:21:00,
2013-03-02 00:26:00,36.0,28.1,28.84,NW,315,0.0,0.0,73,0.00,CLR,SKC,0.00,WeatherDisplay:10.37,2013-03-02 05:26:00,
2013-03-02 00:31:00,36.0,28.1,28.84,NW,315,1.1,0.0,73,0.00,CLR,SKC,0.00,WeatherDisplay:10.37,2013-03-02 05:31:00,
2013-03-02 00:36:00,36.0,28.5,28.84,SE,135,1.1,0.0,74,0.00,CLR,SKC,0.00,WeatherDisplay:10.37,2013-03-02 05:36:00,
2013-03-02 00:41:00,35.6,28.1,28.83,NW,315,0.0,0.0,74,0.00,CLR,SKC,0.00,WeatherDisplay:10.37,2013-03-02 05:41:00,
2013-03-02 00:46:00,35.2,27.8,28.83,NW,315,1.1,0.0,74,0.00,CLR,SKC,0.00,WeatherDisplay:10.37,2013-03-02 05:46:00,
2013-03-02 00:51:00,35.1,27.9,28.83,NW,315,0.0,0.0,75,0.00,CLR,SKC,0.00,WeatherDisplay:10.37,2013-03-02 05:51:00,
2013-03-02 00:56:00,34.9,28.1,28.83,NW,315,0.0,0.0,76,0.00,CLR,SKC,0.00,WeatherDisplay:10.37,2013-03-02 05:56:00,
2013-03-02 01:01:00,34.7,27.9,28.83,NW,315,1.1,0.0,76,0.00,CLR,SKC,0.00,WeatherDisplay:10.37,2013-03-02 06:01:00,
2013-03-02 01:06:00,34.7,27.9,28.83,NW,315,0.0,0.0,76,0.00,CLR,SKC,0.00,WeatherDisplay:10.37,2013-03-02 06:06:00,
2013-03-02 01:11:00,34.5,28.1,28.82,NW,315,0.0,0.0,77,0.00,CLR,SKC,0.00,WeatherDisplay:10.37,2013-03-02 06:11:00,
2013-03-02 01:16:00,34.5,28.4,28.83,SE,135,0.0,0.0,78,0.00,CLR,SKC,0.00,WeatherDisplay:10.37,2013-03-02 06:16:00,
2013-03-02 01:21:00,34.2,27.7,28.83,NW,315,1.1,0.0,77,0.00,CLR,SKC,0.00,WeatherDisplay:10.37,2013-03-02 06:21:00,
2013-03-02 01:26:00,34.2,28.0,28.83,North,0,1.1,0.0,78,0.00,CLR,SKC,0.00,WeatherDisplay:10.37,2013-03-02 06:26:00,
2013-03-02 01:31:00,34.2,28.0,28.83,North,0,0.0,0.0,78,0.00,CLR,SKC,0.00,WeatherDisplay:10.37,2013-03-02 06:31:00,
2013-03-02 01:36:00,34.2,28.0,28.83,NW,315,1.1,0.0,78,0.00,CLR,SKC,0.00,WeatherDisplay:10.37,2013-03-02 06:36:00,
2013-03-02 01:41:00,34.3,28.5,28.84,NW,315,1.1,0.0,79,0.00,CLR,SKC,0.00,WeatherDisplay:10.37,2013-03-02 06:41:00,
2013-03-02 01:46:00,34.3,28.5,28.83,NW,315,0.0,0.0,79,0.00,CLR,SKC,0.00,WeatherDisplay:10.37,2013-03-02 06:46:00,
2013-03-02 01:51:00,34.3,28.5,28.83,South,180,0.0,0.0,79,0.00,CLR,SKC,0.00,WeatherDisplay:10.37,2013-03-02 06:51:00,
2013-03-02 01:56:00,34.3,28.8,28.83,NW,315,0.0,0.0,80,0.00,CLR,SKC,0.00,WeatherDisplay:10.37,2013-03-02 06:56:00,
2013-03-02 02:01:00,34.3,28.5,28.83,NW,315,0.0,0.0,79,0.00,CLR,SKC,0.00,WeatherDisplay:10.37,2013-03-02 07:01:00,
2013-03-02 02:06:00,34.3,28.5,28.83,NW,315,1.1,0.0,79,0.00,CLR,SKC,0.00,WeatherDisplay:10.37,2013-03-02 07:06:00,
2013-03-02 02:11:00,34.3,28.5,28.83,NW,315,1.1,0.0,79,0.00,CLR,SKC,0.00,WeatherDisplay:10.37,2013-03-02 07:11:00,
2013-03-02 02:16:00,34.3,28.8,28.83,SW,225,1.1,0.0,80,0.00,CLR,SKC,0.00,WeatherDisplay:10.37,2013-03-02 07:16:00,
2013-03-02 02:21:00,34.5,29.3,28.83,SW,225,1.1,0.0,81,0.00,CLR,SKC,0.00,WeatherDisplay:10.37,2013-03-02 07:21:00,
2013-03-02 02:26:00,34.5,29.3,28.82,NW,315,1.1,0.0,81,0.00,CLR,SKC,0.00,WeatherDisplay:10.37,2013-03-02 07:26:00,
2013-03-02 02:31:00,34.5,29.3,28.82,NW,315,0.0,0.0,81,0.00,CLR,SKC,0.00,WeatherDisplay:10.37,2013-03-02 07:31:00,
2013-03-02 02:36:00,34.5,29.3,28.82,NW,315,0.0,0.0,81,0.00,CLR,SKC,0.00,WeatherDisplay:10.37,2013-03-02 07:36:00,
2013-03-02 02:41:00,34.3,29.1,28.82,NW,315,0.0,0.0,81,0.00,CLR,SKC,0.00,WeatherDisplay:10.37,2013-03-02 07:41:00,
2013-03-02 02:46:00,34.3,28.8,28.82,NW,315,0.0,0.0,80,0.00,CLR,SKC,0.00,WeatherDisplay:10.37,2013-03-02 07:46:00,
2013-03-02 02:51:00,34.3,29.1,28.81,NW,315,1.1,0.0,81,0.00,CLR,SKC,0.00,WeatherDisplay:10.37,2013-03-02 07:51:00,
2013-03-02 02:56:00,34.3,29.1,28.81,NW,315,0.0,0.0,81,0.00,CLR,SKC,0.00,WeatherDisplay:10.37,2013-03-02 07:56:00,
2013-03-02 03:01:00,34.3,29.1,28.81,SW,225,0.0,0.0,81,0.00,CLR,SKC,0.00,WeatherDisplay:10.37,2013-03-02 08:01:00,
2013-03-02 03:06:00,34.3,29.1,28.81,SW,225,0.0,0.0,81,0.00,CLR,SKC,0.00,WeatherDisplay:10.37,2013-03-02 08:06:00,
2013-03-02 03:11:00,34.2,29.2,28.82,NW,315,0.0,0.0,82,0.00,CLR,SKC,0.00,WeatherDisplay:10.37,2013-03-02 08:11:00,
2013-03-02 03:16:00,34.2,29.2,28.81,NW,315,0.0,0.0,82,0.00,CLR,SKC,0.00,WeatherDisplay:10.37,2013-03-02 08:16:00,
2013-03-02 03:21:00,34.2,29.2,28.82,NW,315,1.1,0.0,82,0.00,CLR,SKC,0.00,WeatherDisplay:10.37,2013-03-02 08:21:00,
2013-03-02 03:26:00,34.2,29.2,28.81,NW,315,1.1,0.0,82,0.00,CLR,SKC,0.00,WeatherDisplay:10.37,2013-03-02 08:26:00,
2013-03-02 03:31:00,34.3,29.4,28.81,NW,315,1.1,0.0,82,0.00,CLR,SKC,0.00,WeatherDisplay:10.37,2013-03-02 08:31:00,
2013-03-02 03:36:00,34.3,29.4,28.81,NW,315,1.1,0.0,82,0.00,CLR,SKC,0.00,WeatherDisplay:10.37,2013-03-02 08:36:00,
2013-03-02 03:41:00,34.3,29.4,28.81,NW,315,1.1,0.0,82,0.00,CLR,SKC,0.00,WeatherDisplay:10.37,2013-03-02 08:41:00,
2013-03-02 03:46:00,34.5,29.6,28.81,SW,225,0.0,0.0,82,0.00,CLR,SKC,0.00,WeatherDisplay:10.37,2013-03-02 08:46:00,
2013-03-02 03:51:00,34.5,29.6,28.81,West,270,0.0,0.0,82,0.00,CLR,SKC,0.00,WeatherDisplay:10.37,2013-03-02 08:51:00,
2013-03-02 03:56:00,34.5,29.6,28.81,West,270,0.0,0.0,82,0.00,CLR,SKC,0.00,WeatherDisplay:10.37,2013-03-02 08:56:00,
2013-03-02 04:02:00,34.7,29.8,28.81,SW,225,0.0,0.0,82,0.00,CLR,SKC,0.00,WeatherDisplay:10.37,2013-03-02 09:02:00,
2013-03-02 04:07:00,34.7,29.8,28.81,NW,315,0.0,0.0,82,0.00,CLR,SKC,0.00,WeatherDisplay:10.37,2013-03-02 09:07:00,
2013-03-02 04:12:00,34.7,29.8,28.81,NW,315,1.1,0.0,82,0.00,CLR,SKC,0.00,WeatherDisplay:10.37,2013-03-02 09:12:00,
2013-03-02 04:17:00,34.7,29.8,28.81,NW,315,0.0,0.0,82,0.00,CLR,SKC,0.00,WeatherDisplay:10.37,2013-03-02 09:17:00,
2013-03-02 04:22:00,34.7,29.8,28.81,NW,315,0.0,0.0,82,0.00,CLR,SKC,0.00,WeatherDisplay:10.37,2013-03-02 09:22:00,
2013-03-02 04:27:00,34.7,29.8,28.81,NW,315,0.0,0.0,82,0.00,CLR,SKC,0.00,WeatherDisplay:10.37,2013-03-02 09:27:00,
2013-03-02 04:32:00,34.7,29.8,28.81,NW,315,1.1,0.0,82,0.00,CLR,SKC,0.00,WeatherDisplay:10.37,2013-03-02 09:32:00,
2013-03-02 04:37:00,34.5,29.6,28.81,NW,315,0.0,0.0,82,0.00,CLR,SKC,0.00,WeatherDisplay:10.37,2013-03-02 09:37:00,
2013-03-02 04:42:00,34.5,29.6,28.81,NW,315,1.1,0.0,82,0.00,CLR,SKC,0.00,WeatherDisplay:10.37,2013-03-02 09:42:00,
2013-03-02 04:47:00,34.5,29.6,28.80,NW,315,0.0,0.0,82,0.00,CLR,SKC,0.00,WeatherDisplay:10.37,2013-03-02 09:47:00,
2013-03-02 04:52:00,34.5,29.6,28.81,South,180,0.0,0.0,82,0.00,CLR,SKC,0.00,WeatherDisplay:10.37,2013-03-02 09:52:00,
2013-03-02 04:57:00,34.5,29.6,28.81,South,180,0.0,0.0,82,0.00,CLR,SKC,0.00,WeatherDisplay:10.37,2013-03-02 09:57:00,
2013-03-02 05:02:00,34.7,29.8,28.81,NW,315,1.1,0.0,82,0.00,CLR,SKC,0.00,WeatherDisplay:10.37,2013-03-02 10:02:00,
2013-03-02 05:07:00,34.7,29.8,28.81,NW,315,1.1,0.0,82,0.00,CLR,SKC,0.00,WeatherDisplay:10.37,2013-03-02 10:07:00,
2013-03-02 05:12:00,34.7,29.8,28.81,North,0,1.1,0.0,82,0.00,CLR,SKC,0.00,WeatherDisplay:10.37,2013-03-02 10:12:00,
2013-03-02 05:17:00,34.7,29.8,28.80,North,0,1.1,0.0,82,0.00,CLR,SKC,0.00,WeatherDisplay:10.37,2013-03-02 10:17:00,
2013-03-02 05:22:00,34.5,29.6,28.80,North,0,0.0,0.0,82,0.00,CLR,SKC,0.00,WeatherDisplay:10.37,2013-03-02 10:22:00,
2013-03-02 05:27:00,34.7,29.5,28.81,North,0,0.0,0.0,81,0.00,CLR,SKC,0.00,WeatherDisplay:10.37,2013-03-02 10:27:00,
2013-03-02 05:32:00,34.5,29.3,28.80,North,0,0.0,0.0,81,0.00,CLR,SKC,0.00,WeatherDisplay:10.37,2013-03-02 10:32:00,
2013-03-02 05:37:00,34.5,29.3,28.80,NW,315,0.0,0.0,81,0.00,CLR,SKC,0.00,WeatherDisplay:10.37,2013-03-02 10:37:00,
2013-03-02 05:42:00,34.3,29.4,28.81,North,0,0.0,0.0,82,0.00,CLR,SKC,0.00,WeatherDisplay:10.37,2013-03-02 10:42:00,
2013-03-02 05:47:00,34.3,29.4,28.80,North,0,0.0,0.0,82,0.00,CLR,SKC,0.00,WeatherDisplay:10.37,2013-03-02 10:47:00,
2013-03-02 05:52:00,34.3,29.4,28.80,North,0,0.0,0.0,82,0.00,CLR,SKC,0.00,WeatherDisplay:10.37,2013-03-02 10:52:00,
2013-03-02 05:57:00,34.3,29.4,28.80,NW,315,1.1,0.0,82,0.00,CLR,SKC,0.00,WeatherDisplay:10.37,2013-03-02 10:57:00,
2013-03-02 06:02:00,34.3,29.4,28.81,NW,315,0.0,0.0,82,0.00,CLR,SKC,0.00,WeatherDisplay:10.37,2013-03-02 11:02:00,
2013-03-02 06:07:00,34.3,29.4,28.80,SW,225,1.1,0.0,82,0.00,CLR,SKC,0.00,WeatherDisplay:10.37,2013-03-02 11:07:00,
2013-03-02 06:12:00,34.3,29.4,28.81,North,0,1.1,0.0,82,0.00,CLR,SKC,0.00,WeatherDisplay:10.37,2013-03-02 11:12:00,
2013-03-02 06:17:00,34.3,29.7,28.80,North,0,0.0,0.0,83,0.00,CLR,SKC,0.00,WeatherDisplay:10.37,2013-03-02 11:17:00,
2013-03-02 06:22:00,34.3,29.7,28.80,NW,315,1.1,0.0,83,0.00,CLR,SKC,0.00,WeatherDisplay:10.37,2013-03-02 11:22:00,
2013-03-02 06:27:00,34.3,29.7,28.80,NW,315,1.1,0.0,83,0.00,CLR,SKC,0.00,WeatherDisplay:10.37,2013-03-02 11:27:00,
2013-03-02 06:32:00,34.3,29.7,28.81,NW,315,0.0,0.0,83,0.00,CLR,SKC,0.00,WeatherDisplay:10.37,2013-03-02 11:32:00,
2013-03-02 06:37:00,34.3,29.7,28.81,NW,315,1.1,0.0,83,0.00,CLR,SKC,0.00,WeatherDisplay:10.37,2013-03-02 11:37:00,
2013-03-02 06:42:00,34.3,29.7,28.81,NW,315,0.0,0.0,83,0.00,CLR,SKC,0.00,WeatherDisplay:10.37,2013-03-02 11:42:00,
2013-03-02 06:47:00,34.5,29.9,28.81,NW,315,1.1,0.0,83,0.00,CLR,SKC,0.00,WeatherDisplay:10.37,2013-03-02 11:47:00,
2013-03-02 06:52:00,34.7,30.4,28.81,NW,315,1.1,0.0,84,0.00,CLR,SKC,0.00,WeatherDisplay:10.37,2013-03-02 11:52:00,
2013-03-02 06:57:00,34.7,30.1,28.81,NW,315,0.0,0.0,83,0.00,CLR,SKC,0.00,WeatherDisplay:10.37,2013-03-02 11:57:00,
2013-03-02 07:02:00,34.7,30.1,28.81,NW,315,0.0,0.0,83,0.00,CLR,SKC,0.00,WeatherDisplay:10.37,2013-03-02 12:02:00,
2013-03-02 07:07:00,34.5,29.9,28.81,West,270,0.0,0.0,83,0.00,CLR,SKC,0.00,WeatherDisplay:10.37,2013-03-02 12:07:00,
2013-03-02 07:12:00,34.5,29.9,28.81,NW,315,0.0,0.0,83,0.00,CLR,SKC,0.00,WeatherDisplay:10.37,2013-03-02 12:12:00,
2013-03-02 07:17:00,34.7,30.1,28.81,NW,315,1.1,0.0,83,0.00,CLR,SKC,0.00,WeatherDisplay:10.37,2013-03-02 12:17:00,
2013-03-02 07:22:00,34.9,30.5,28.81,NW,315,1.1,0.0,84,0.00,CLR,SKC,0.00,WeatherDisplay:10.37,2013-03-02 12:22:00,
2013-03-02 07:28:00,35.1,30.4,28.82,NW,315,1.1,0.0,83,0.00,CLR,SKC,0.00,WeatherDisplay:10.37,2013-03-02 12:28:00,
2013-03-02 07:33:00,35.1,30.4,28.81,NW,315,0.0,0.0,83,0.00,CLR,SKC,0.00,WeatherDisplay:10.37,2013-03-02 12:33:00,
2013-03-02 07:38:00,35.1,30.4,28.82,NW,315,0.0,0.0,83,0.00,CLR,SKC,0.00,WeatherDisplay:10.37,2013-03-02 12:38:00,
2013-03-02 07:43:00,35.2,30.6,28.82,North,0,0.0,0.0,83,0.00,CLR,SKC,0.00,WeatherDisplay:10.37,2013-03-02 12:43:00,
2013-03-02 07:48:00,35.4,30.8,28.82,North,0,0.0,0.0,83,0.00,CLR,SKC,0.00,WeatherDisplay:10.37,2013-03-02 12:48:00,
2013-03-02 07:53:00,35.6,30.9,28.82,West,270,0.0,0.0,83,0.00,CLR,SKC,0.00,WeatherDisplay:10.37,2013-03-02 12:53:00,
2013-03-02 07:58:00,35.8,31.1,28.83,South,180,0.0,0.0,83,0.00,CLR,SKC,0.00,WeatherDisplay:10.37,2013-03-02 12:58:00,
2013-03-02 08:03:00,35.8,30.8,28.83,North,0,1.1,0.0,82,0.00,CLR,SKC,0.00,WeatherDisplay:10.37,2013-03-02 13:03:00,
2013-03-02 08:08:00,36.0,31.0,28.82,South,180,1.1,0.0,82,0.00,CLR,SKC,0.00,WeatherDisplay:10.37,2013-03-02 13:08:00,
2013-03-02 08:13:00,36.1,31.2,28.83,North,0,1.1,0.0,82,0.00,CLR,SKC,0.00,WeatherDisplay:10.37,2013-03-02 13:13:00,
2013-03-02 08:18:00,36.3,31.0,28.84,South,180,1.1,0.0,81,0.00,CLR,SKC,0.00,WeatherDisplay:10.37,2013-03-02 13:18:00,
2013-03-02 08:23:00,36.5,31.2,28.84,South,180,0.0,0.0,81,0.00,CLR,SKC,0.00,WeatherDisplay:10.37,2013-03-02 13:23:00,
2013-03-02 08:28:00,36.5,31.2,28.83,SE,135,0.0,0.0,81,0.00,CLR,SKC,0.00,WeatherDisplay:10.37,2013-03-02 13:28:00,
2013-03-02 08:33:00,36.7,31.4,28.83,South,180,1.1,0.0,81,0.00,CLR,SKC,0.00,WeatherDisplay:10.37,2013-03-02 13:33:00,
2013-03-02 08:38:00,36.7,31.4,28.83,South,180,0.0,0.0,81,0.00,CLR,SKC,0.00,WeatherDisplay:10.37,2013-03-02 13:38:00,
2013-03-02 08:43:00,36.7,31.4,28.83,SE,135,0.0,0.0,81,0.00,CLR,SKC,0.00,WeatherDisplay:10.37,2013-03-02 13:43:00,
2013-03-02 08:48:00,36.9,33.1,28.83,South,180,0.0,0.0,86,0.00,CLR,SKC,0.00,WeatherDisplay:10.37,2013-03-02 13:48:00,
2013-03-02 08:53:00,37.2,33.7,28.83,SW,225,1.1,0.0,87,0.00,CLR,SKC,0.00,WeatherDisplay:10.37,2013-03-02 13:53:00,
2013-03-02 08:58:00,37.8,34.2,28.83,South,180,0.0,0.0,87,0.00,CLR,SKC,0.00,WeatherDisplay:10.37,2013-03-02 13:58:00,
2013-03-02 09:03:00,38.3,34.8,28.83,SE,135,0.0,0.0,87,0.00,CLR,SKC,0.00,WeatherDisplay:10.37,2013-03-02 14:03:00,
2013-03-02 09:08:00,38.7,34.5,28.83,South,180,0.0,0.0,85,0.00,CLR,SKC,0.00,WeatherDisplay:10.37,2013-03-02 14:08:00,
2013-03-02 09:13:00,39.6,35.4,28.82,South,180,1.1,0.0,85,0.00,CLR,SKC,0.00,WeatherDisplay:10.37,2013-03-02 14:13:00,
2013-03-02 09:18:00,40.6,36.2,28.82,SW,225,0.0,0.0,84,0.00,CLR,SKC,0.00,WeatherDisplay:10.37,2013-03-02 14:18:00,
2013-03-02 09:23:00,41.0,35.9,28.82,South,180,0.0,0.0,82,0.00,CLR,SKC,0.00,WeatherDisplay:10.37,2013-03-02 14:23:00,
2013-03-02 09:28:00,41.4,35.3,28.82,SE,135,0.0,0.0,79,0.00,CLR,SKC,0.00,WeatherDisplay:10.37,2013-03-02 14:28:00,
2013-03-02 09:33:00,41.7,34.7,28.82,South,180,0.0,0.0,76,0.00,CLR,SKC,0.00,WeatherDisplay:10.37,2013-03-02 14:33:00,
2013-03-02 09:38:00,41.2,34.5,28.82,West,270,0.0,0.0,77,0.00,CLR,SKC,0.00,WeatherDisplay:10.37,2013-03-02 14:38:00,
2013-03-02 09:43:00,41.0,34.7,28.81,South,180,0.0,0.0,78,0.00,CLR,SKC,0.00,WeatherDisplay:10.37,2013-03-02 14:43:00,
2013-03-02 09:48:00,40.6,34.0,28.81,SE,135,0.0,0.0,77,0.00,CLR,SKC,0.00,WeatherDisplay:10.37,2013-03-02 14:48:00,
2013-03-02 09:53:00,40.3,34.0,28.82,South,180,0.0,0.0,78,0.00,CLR,SKC,0.00,WeatherDisplay:10.37,2013-03-02 14:53:00,
2013-03-02 09:58:00,40.5,34.1,28.82,SE,135,0.0,0.0,78,0.00,CLR,SKC,0.00,WeatherDisplay:10.37,2013-03-02 14:58:00,
2013-03-02 10:03:00,40.6,34.3,28.82,West,270,0.0,0.0,78,0.00,CLR,SKC,0.00,WeatherDisplay:10.37,2013-03-02 15:03:00,
2013-03-02 10:08:00,42.1,35.4,28.82,SE,135,0.0,0.0,77,0.00,CLR,SKC,0.00,WeatherDisplay:10.37,2013-03-02 15:08:00,
2013-03-02 10:13:00,43.9,35.8,28.81,South,180,0.0,0.0,73,0.00,CLR,SKC,0.00,WeatherDisplay:10.37,2013-03-02 15:13:00,
2013-03-02 10:18:00,45.0,35.4,28.81,SW,225,0.0,0.0,69,0.00,CLR,SKC,0.00,WeatherDisplay:10.37,2013-03-02 15:18:00,
2013-03-02 10:23:00,45.3,34.2,28.81,West,270,0.0,0.0,65,0.00,CLR,SKC,0.00,WeatherDisplay:10.37,2013-03-02 15:23:00,
2013-03-02 10:28:00,46.4,36.0,28.81,SW,225,0.0,0.0,67,0.00,CLR,SKC,0.00,WeatherDisplay:10.37,2013-03-02 15:28:00,
2013-03-02 10:33:00,47.1,34.8,28.80,South,180,0.0,0.0,62,0.00,CLR,SKC,0.00,WeatherDisplay:10.37,2013-03-02 15:33:00,
2013-03-02 10:38:00,46.0,33.3,28.80,South,180,0.0,0.0,61,0.00,CLR,SKC,0.00,WeatherDisplay:10.37,2013-03-02 15:38:00,
2013-03-02 10:43:00,45.7,33.4,28.80,SE,135,0.0,0.0,62,0.00,CLR,SKC,0.00,WeatherDisplay:10.37,2013-03-02 15:43:00,
2013-03-02 10:48:00,46.0,34.5,28.80,NE,45,0.0,0.0,64,0.00,CLR,SKC,0.00,WeatherDisplay:10.37,2013-03-02 15:48:00,
2013-03-02 10:53:00,45.0,32.7,28.80,SE,135,0.0,0.0,62,0.00,CLR,SKC,0.00,WeatherDisplay:10.37,2013-03-02 15:53:00,
2013-03-02 10:58:00,43.5,31.8,28.80,SW,225,0.0,0.0,63,0.00,CLR,SKC,0.00,WeatherDisplay:10.37,2013-03-02 15:58:00,
2013-03-02 11:03:00,43.3,31.6,28.80,NW,315,0.0,0.0,63,0.00,CLR,SKC,0.00,WeatherDisplay:10.37,2013-03-02 16:03:00,
2013-03-02 11:08:00,42.6,31.3,28.80,NE,45,0.0,0.0,64,0.00,CLR,SKC,0.00,WeatherDisplay:10.37,2013-03-02 16:08:00,
2013-03-02 11:13:00,42.4,31.5,28.80,NE,45,0.0,0.0,65,0.00,CLR,SKC,0.00,WeatherDisplay:10.37,2013-03-02 16:13:00,
2013-03-02 11:18:00,41.9,31.7,28.80,North,0,0.0,0.0,67,0.00,CLR,SKC,0.00,WeatherDisplay:10.37,2013-03-02 16:18:00,
2013-03-02 11:23:00,41.5,31.8,28.80,North,0,0.0,0.0,68,0.00,CLR,SKC,0.00,WeatherDisplay:10.37,2013-03-02 16:23:00,
2013-03-02 11:28:00,41.5,32.5,28.80,South,180,0.0,0.0,70,0.00,CLR,SKC,0.00,WeatherDisplay:10.37,2013-03-02 16:28:00,
2013-03-02 11:33:00,42.1,33.0,28.80,South,180,0.0,0.0,70,0.00,CLR,SKC,0.00,WeatherDisplay:10.37,2013-03-02 16:33:00,
2013-03-02 11:38:00,42.6,33.2,28.80,NE,45,0.0,0.0,69,0.00,CLR,SKC,0.00,WeatherDisplay:10.37,2013-03-02 16:38:00,
2013-03-02 11:43:00,42.8,32.2,28.80,North,0,0.0,0.0,66,0.00,CLR,SKC,0.00,WeatherDisplay:10.37,2013-03-02 16:43:00,
2013-03-02 11:48:00,42.6,32.4,28.80,South,180,0.0,0.0,67,0.00,CLR,SKC,0.00,WeatherDisplay:10.37,2013-03-02 16:48:00,
2013-03-02 11:53:00,42.3,31.3,28.80,SE,135,0.0,0.0,65,0.00,CLR,SKC,0.00,WeatherDisplay:10.37,2013-03-02 16:53:00,
2013-03-02 11:58:00,41.9,31.7,28.80,SE,135,0.0,0.0,67,0.00,CLR,SKC,0.00,WeatherDisplay:10.37,2013-03-02 16:58:00,
2013-03-02 12:04:00,41.9,31.7,28.79,South,180,0.0,0.0,67,0.00,CLR,SKC,0.00,WeatherDisplay:10.37,2013-03-02 17:04:00,
2013-03-02 12:09:00,41.9,32.1,28.79,SW,225,0.0,0.0,68,0.00,CLR,SKC,0.00,WeatherDisplay:10.37,2013-03-02 17:09:00,
2013-03-02 12:14:00,41.9,31.7,28.79,West,270,0.0,0.0,67,0.00,CLR,SKC,0.00,WeatherDisplay:10.37,2013-03-02 17:14:00,
2013-03-02 12:19:00,41.9,31.4,28.79,West,270,0.0,0.0,66,0.00,CLR,SKC,0.00,WeatherDisplay:10.37,2013-03-02 17:19:00,
2013-03-02 12:24:00,42.1,31.9,28.79,North,0,1.1,0.0,67,0.00,CLR,SKC,0.00,WeatherDisplay:10.37,2013-03-02 17:24:00,
2013-03-02 12:29:00,41.9,31.0,28.79,SW,225,0.0,0.0,65,0.00,CLR,SKC,0.00,WeatherDisplay:10.37,2013-03-02 17:29:00,
2013-03-02 12:34:00,41.7,31.6,28.79,North,0,1.1,0.0,67,0.00,CLR,SKC,0.00,WeatherDisplay:10.37,2013-03-02 17:34:00,
2013-03-02 12:39:00,42.1,32.3,28.79,North,0,0.0,0.0,68,0.00,CLR,SKC,0.00,WeatherDisplay:10.37,2013-03-02 17:39:00,
2013-03-02 12:44:00,43.0,32.0,28.79,East,90,0.0,0.0,65,0.00,CLR,SKC,0.00,WeatherDisplay:10.37,2013-03-02 17:44:00,
2013-03-02 12:49:00,43.5,29.3,28.78,SW,225,0.0,0.0,57,0.00,CLR,SKC,0.00,WeatherDisplay:10.37,2013-03-02 17:49:00,
2013-03-02 12:54:00,44.6,28.5,28.78,North,0,0.0,0.0,53,0.00,CLR,SKC,0.00,WeatherDisplay:10.37,2013-03-02 17:54:00,
2013-03-02 12:59:00,44.8,27.7,28.78,North,0,0.0,0.0,51,0.00,CLR,SKC,0.00,WeatherDisplay:10.37,2013-03-02 17:59:00,
2013-03-02 13:04:00,45.0,27.4,28.78,SE,135,0.0,0.0,50,0.00,CLR,SKC,0.00,WeatherDisplay:10.37,2013-03-02 18:04:00,
2013-03-02 13:09:00,45.9,27.3,28.77,NW,315,0.0,0.0,48,0.00,CLR,SKC,0.00,WeatherDisplay:10.37,2013-03-02 18:09:00,
2013-03-02 13:14:00,45.7,25.5,28.77,West,270,0.0,0.0,45,0.00,CLR,SKC,0.00,WeatherDisplay:10.37,2013-03-02 18:14:00,
2013-03-02 13:19:00,45.7,25.0,28.77,SW,225,0.0,0.0,44,0.00,CLR,SKC,0.00,WeatherDisplay:10.37,2013-03-02 18:19:00,
2013-03-02 13:24:00,45.5,24.8,28.77,South,180,0.0,0.0,44,0.00,CLR,SKC,0.00,WeatherDisplay:10.37,2013-03-02 18:24:00,
2013-03-02 13:29:00,45.0,23.8,28.77,NW,315,0.0,0.0,43,0.00,CLR,SKC,0.00,WeatherDisplay:10.37,2013-03-02 18:29:00,
2013-03-02 13:34:00,44.8,23.6,28.76,North,0,0.0,0.0,43,0.00,CLR,SKC,0.00,WeatherDisplay:10.37,2013-03-02 18:34:00,
2013-03-02 13:39:00,44.8,24.7,28.76,NW,315,0.0,0.0,45,0.00,CLR,SKC,0.00,WeatherDisplay:10.37,2013-03-02 18:39:00,
2013-03-02 13:44:00,46.0,26.4,28.76,North,0,0.0,0.0,46,0.00,CLR,SKC,0.00,WeatherDisplay:10.37,2013-03-02 18:44:00,
2013-03-02 13:49:00,46.9,26.7,28.76,NE,45,0.0,0.0,45,0.00,CLR,SKC,0.00,WeatherDisplay:10.37,2013-03-02 18:49:00,
2013-03-02 13:54:00,48.6,27.6,28.76,North,0,0.0,0.0,44,0.00,CLR,SKC,0.00,WeatherDisplay:10.37,2013-03-02 18:54:00,
2013-03-02 13:59:00,47.7,23.9,28.76,SE,135,0.0,0.0,39,0.00,CLR,SKC,0.00,WeatherDisplay:10.37,2013-03-02 18:59:00,
2013-03-02 14:04:00,46.9,23.8,28.76,North,0,0.0,0.0,40,0.00,CLR,SKC,0.00,WeatherDisplay:10.37,2013-03-02 19:04:00,
2013-03-02 14:09:00,46.2,24.9,28.76,NE,45,0.0,0.0,43,0.00,CLR,SKC,0.00,WeatherDisplay:10.37,2013-03-02 19:09:00,
2013-03-02 14:14:00,45.7,24.4,28.76,North,0,0.0,0.0,43,0.00,CLR,SKC,0.00,WeatherDisplay:10.37,2013-03-02 19:14:00,
2013-03-02 14:19:00,45.1,23.9,28.76,North,0,0.0,0.0,43,0.00,CLR,SKC,0.00,WeatherDisplay:10.37,2013-03-02 19:19:00,
2013-03-02 14:24:00,45.0,23.8,28.76,East,90,0.0,0.0,43,0.00,CLR,SKC,0.00,WeatherDisplay:10.37,2013-03-02 19:24:00,
2013-03-02 14:29:00,44.4,23.3,28.76,North,0,0.0,0.0,43,0.00,CLR,SKC,0.00,WeatherDisplay:10.37,2013-03-02 19:29:00,
2013-03-02 14:34:00,45.0,23.8,28.76,West,270,0.0,0.0,43,0.00,CLR,SKC,0.00,WeatherDisplay:10.37,2013-03-02 19:34:00,
2013-03-02 14:39:00,45.3,23.5,28.76,North,0,0.0,0.0,42,0.00,CLR,SKC,0.00,WeatherDisplay:10.37,2013-03-02 19:39:00,
2013-03-02 14:44:00,44.8,23.6,28.76,NE,45,0.0,0.0,43,0.00,CLR,SKC,0.00,WeatherDisplay:10.37,2013-03-02 19:44:00,
2013-03-02 14:49:00,44.6,24.0,28.76,NE,45,0.0,0.0,44,0.00,CLR,SKC,0.00,WeatherDisplay:10.37,2013-03-02 19:49:00,
2013-03-02 14:54:00,45.3,24.7,28.76,North,0,0.0,0.0,44,0.00,CLR,SKC,0.00,WeatherDisplay:10.37,2013-03-02 19:54:00,
2013-03-02 14:59:00,46.2,24.9,28.76,North,0,0.0,0.0,43,0.00,CLR,SKC,0.00,WeatherDisplay:10.37,2013-03-02 19:59:00,
2013-03-02 15:04:00,46.0,24.2,28.76,North,0,0.0,0.0,42,0.00,CLR,SKC,0.00,WeatherDisplay:10.37,2013-03-02 20:04:00,
2013-03-02 15:09:00,44.8,22.5,28.76,NE,45,0.0,0.0,41,0.00,CLR,SKC,0.00,WeatherDisplay:10.37,2013-03-02 20:09:00,
2013-03-02 15:14:00,44.1,22.4,28.76,East,90,0.0,0.0,42,0.00,CLR,SKC,0.00,WeatherDisplay:10.37,2013-03-02 20:14:00,
2013-03-02 15:19:00,43.3,22.9,28.76,NW,315,0.0,0.0,44,0.00,CLR,SKC,0.00,WeatherDisplay:10.37,2013-03-02 20:19:00,
2013-03-02 15:24:00,43.5,23.6,28.77,NW,315,0.0,0.0,45,0.00,CLR,SKC,0.00,WeatherDisplay:10.37,2013-03-02 20:24:00,
2013-03-02 15:29:00,43.9,23.9,28.77,South,180,0.0,0.0,45,0.00,CLR,SKC,0.00,WeatherDisplay:10.37,2013-03-02 20:29:00,
2013-03-02 15:34:00,43.9,24.4,28.76,SE,135,0.0,0.0,46,0.00,CLR,SKC,0.00,WeatherDisplay:10.37,2013-03-02 20:34:00,
2013-03-02 15:39:00,43.7,24.2,28.77,NE,45,0.0,0.0,46,0.00,CLR,SKC,0.00,WeatherDisplay:10.37,2013-03-02 20:39:00,
2013-03-02 15:44:00,43.2,23.8,28.77,SW,225,0.0,0.0,46,0.00,CLR,SKC,0.00,WeatherDisplay:10.37,2013-03-02 20:44:00,
2013-03-02 15:49:00,42.8,23.4,28.77,NE,45,0.0,0.0,46,0.00,CLR,SKC,0.00,WeatherDisplay:10.37,2013-03-02 20:49:00,
2013-03-02 15:54:00,42.4,23.1,28.77,NW,315,0.0,0.0,46,0.00,CLR,SKC,0.00,WeatherDisplay:10.37,2013-03-02 20:54:00,
2013-03-02 15:59:00,42.3,23.4,28.77,North,0,0.0,0.0,47,0.00,CLR,SKC,0.00,WeatherDisplay:10.37,2013-03-02 20:59:00,
2013-03-02 16:04:00,42.3,22.9,28.77,SE,135,0.0,0.0,46,0.00,CLR,SKC,0.00,WeatherDisplay:10.37,2013-03-02 21:04:00,
2013-03-02 16:09:00,42.4,23.6,28.77,South,180,0.0,0.0,47,0.00,CLR,SKC,0.00,WeatherDisplay:10.37,2013-03-02 21:09:00,
2013-03-02 16:14:00,42.6,23.8,28.78,North,0,0.0,0.0,47,0.00,CLR,SKC,0.00,WeatherDisplay:10.37,2013-03-02 21:14:00,
2013-03-02 16:19:00,42.6,23.3,28.78,North,0,0.0,0.0,46,0.00,CLR,SKC,0.00,WeatherDisplay:10.37,2013-03-02 21:19:00,
2013-03-02 16:24:00,42.3,23.4,28.78,North,0,0.0,0.0,47,0.00,CLR,SKC,0.00,WeatherDisplay:10.37,2013-03-02 21:24:00,
2013-03-02 16:29:00,42.3,23.4,28.79,North,0,0.0,0.0,47,0.00,CLR,SKC,0.00,WeatherDisplay:10.37,2013-03-02 21:29:00,
2013-03-02 16:34:00,41.9,23.6,28.78,East,90,0.0,0.0,48,0.00,CLR,SKC,0.00,WeatherDisplay:10.37,2013-03-02 21:34:00,
2013-03-02 16:39:00,41.5,23.3,28.78,NW,315,0.0,0.0,48,0.00,CLR,SKC,0.00,WeatherDisplay:10.37,2013-03-02 21:39:00,
2013-03-02 16:44:00,41.7,23.9,28.78,North,0,0.0,0.0,49,0.00,CLR,SKC,0.00,WeatherDisplay:10.37,2013-03-02 21:44:00,
2013-03-02 16:49:00,41.7,23.9,28.78,NW,315,1.1,0.0,49,0.00,CLR,SKC,0.00,WeatherDisplay:10.37,2013-03-02 21:49:00,
2013-03-02 16:54:00,41.5,23.3,28.79,NW,315,0.0,0.0,48,0.00,CLR,SKC,0.00,WeatherDisplay:10.37,2013-03-02 21:54:00,
2013-03-02 16:59:00,41.4,22.1,28.79,West,270,0.0,0.0,46,0.00,CLR,SKC,0.00,WeatherDisplay:10.37,2013-03-02 21:59:00,
2013-03-02 17:04:00,41.2,22.5,28.79,NE,45,0.0,0.0,47,0.00,CLR,SKC,0.00,WeatherDisplay:10.37,2013-03-02 22:04:00,
2013-03-02 17:10:00,41.0,23.3,28.80,NE,45,0.0,0.0,49,0.00,CLR,SKC,0.00,WeatherDisplay:10.37,2013-03-02 22:10:00,
2013-03-02 17:15:00,40.8,23.6,28.80,SE,135,0.0,0.0,50,0.00,CLR,SKC,0.00,WeatherDisplay:10.37,2013-03-02 22:15:00,
2013-03-02 17:20:00,40.5,23.7,28.80,NW,315,0.0,0.0,51,0.00,CLR,SKC,0.00,WeatherDisplay:10.37,2013-03-02 22:20:00,
2013-03-02 17:25:00,40.1,23.9,28.80,NE,45,0.0,0.0,52,0.00,CLR,SKC,0.00,WeatherDisplay:10.37,2013-03-02 22:25:00,
2013-03-02 17:30:00,39.7,23.1,28.80,North,0,0.0,0.0,51,0.00,CLR,SKC,0.00,WeatherDisplay:10.37,2013-03-02 22:30:00,
2013-03-02 17:35:00,39.9,24.2,28.80,North,0,0.0,0.0,53,0.00,CLR,SKC,0.00,WeatherDisplay:10.37,2013-03-02 22:35:00,
2013-03-02 17:40:00,39.7,24.0,28.81,West,270,0.0,0.0,53,0.00,CLR,SKC,0.00,WeatherDisplay:10.37,2013-03-02 22:40:00,
2013-03-02 17:45:00,39.6,23.8,28.81,NE,45,0.0,0.0,53,0.00,CLR,SKC,0.00,WeatherDisplay:10.37,2013-03-02 22:45:00,
2013-03-02 17:50:00,39.4,23.7,28.81,NE,45,0.0,0.0,53,0.00,CLR,SKC,0.00,WeatherDisplay:10.37,2013-03-02 22:50:00,
2013-03-02 17:55:00,39.0,23.3,28.81,West,270,0.0,0.0,53,0.00,CLR,SKC,0.00,WeatherDisplay:10.37,2013-03-02 22:55:00,
2013-03-02 18:00:00,38.8,23.6,28.82,NE,45,1.1,0.0,54,0.00,CLR,SKC,0.00,WeatherDisplay:10.37,2013-03-02 23:00:00,
2013-03-02 18:05:00,38.7,23.4,28.82,North,0,1.1,0.0,54,0.00,CLR,SKC,0.00,WeatherDisplay:10.37,2013-03-02 23:05:00,
2013-03-02 18:10:00,38.5,23.3,28.82,North,0,0.0,0.0,54,0.00,CLR,SKC,0.00,WeatherDisplay:10.37,2013-03-02 23:10:00,
2013-03-02 18:15:00,38.3,22.2,28.82,NW,315,0.0,0.0,52,0.00,CLR,SKC,0.00,WeatherDisplay:10.37,2013-03-02 23:15:00,
2013-03-02 18:20:00,38.1,22.5,28.82,NE,45,0.0,0.0,53,0.00,CLR,SKC,0.00,WeatherDisplay:10.37,2013-03-02 23:20:00,
2013-03-02 18:25:00,37.9,21.4,28.83,North,0,0.0,0.0,51,0.00,CLR,SKC,0.00,WeatherDisplay:10.37,2013-03-02 23:25:00,
2013-03-02 18:30:00,37.9,20.5,28.83,North,0,0.0,0.0,49,0.00,CLR,SKC,0.00,WeatherDisplay:10.37,2013-03-02 23:30:00,
2013-03-02 18:35:00,37.8,20.8,28.83,North,0,0.0,0.0,50,0.00,CLR,SKC,0.00,WeatherDisplay:10.37,2013-03-02 23:35:00,
2013-03-02 18:40:00,37.4,21.8,28.83,North,0,0.0,0.0,53,0.00,CLR,SKC,0.00,WeatherDisplay:10.37,2013-03-02 23:40:00,
2013-03-02 18:45:00,37.2,22.1,28.83,North,0,0.0,0.0,54,0.00,CLR,SKC,0.00,WeatherDisplay:10.37,2013-03-02 23:45:00,
2013-03-02 18:50:00,36.9,22.2,28.84,North,0,0.0,0.0,55,0.00,CLR,SKC,0.00,WeatherDisplay:10.37,2013-03-02 23:50:00,
2013-03-02 18:55:00,36.7,20.2,28.84,North,0,0.0,0.0,51,0.00,CLR,SKC,0.00,WeatherDisplay:10.37,2013-03-02 23:55:00,
2013-03-02 19:00:00,36.5,20.1,28.84,North,0,0.0,0.0,51,0.00,CLR,SKC,0.00,WeatherDisplay:10.37,2013-03-03 00:00:00,
2013-03-02 19:05:00,36.1,19.7,28.84,NE,45,0.0,0.0,51,0.00,CLR,SKC,0.00,WeatherDisplay:10.37,2013-03-03 00:05:00,
2013-03-02 19:10:00,36.1,20.2,28.84,North,0,0.0,0.0,52,0.00,CLR,SKC,0.00,WeatherDisplay:10.37,2013-03-03 00:10:00,
2013-03-02 19:15:00,36.0,19.6,28.84,NE,45,0.0,0.0,51,0.00,CLR,SKC,0.00,WeatherDisplay:10.37,2013-03-03 00:15:00,
2013-03-02 19:20:00,36.0,19.6,28.84,North,0,0.0,0.0,51,0.00,CLR,SKC,0.00,WeatherDisplay:10.37,2013-03-03 00:20:00,
2013-03-02 19:25:00,35.8,19.4,28.84,North,0,0.0,0.0,51,0.00,CLR,SKC,0.00,WeatherDisplay:10.37,2013-03-03 00:25:00,
2013-03-02 19:30:00,35.7,19.4,28.84,North,359,0.0,1.0,51,0.00,CLR,SKC,0.00,WeatherDisplay:10.37,2013-03-03 00:30:00,
2013-03-02 19:35:00,35.6,19.2,28.85,West,270,0.0,0.0,51,0.00,CLR,SKC,0.00,WeatherDisplay:10.37,2013-03-03 00:35:00,
2013-03-02 19:40:00,35.3,19.0,28.84,West,259,0.0,2.0,51,0.00,CLR,SKC,0.00,WeatherDisplay:10.37,2013-03-03 00:40:00,
2013-03-02 19:45:00,35.1,18.7,28.85,North,0,1.1,0.0,51,0.00,CLR,SKC,0.00,WeatherDisplay:10.37,2013-03-03 00:45:00,
2013-03-02 19:50:00,34.9,19.5,28.85,North,0,1.1,0.0,53,0.00,CLR,SKC,0.00,WeatherDisplay:10.37,2013-03-03 00:50:00,
2013-03-02 19:55:00,34.9,19.5,28.85,North,0,0.0,0.0,53,0.00,CLR,SKC,0.00,WeatherDisplay:10.37,2013-03-03 00:55:00,
2013-03-02 20:00:00,34.9,19.5,28.85,North,0,1.1,0.0,53,0.00,CLR,SKC,0.00,WeatherDisplay:10.37,2013-03-03 01:00:00,
2013-03-02 20:05:00,34.9,19.9,28.85,North,0,1.1,0.0,54,0.00,CLR,SKC,0.00,WeatherDisplay:10.37,2013-03-03 01:05:00,
2013-03-02 20:10:00,34.7,19.3,28.85,North,7,0.0,2.0,53,0.00,CLR,SKC,0.00,WeatherDisplay:10.37,2013-03-03 01:10:00,
2013-03-02 20:15:00,34.7,19.7,28.86,North,0,1.1,0.0,54,0.00,CLR,SKC,0.00,WeatherDisplay:10.37,2013-03-03 01:15:00,
2013-03-02 20:20:00,34.7,19.7,28.85,North,3,0.0,1.0,54,0.00,CLR,SKC,0.00,WeatherDisplay:10.37,2013-03-03 01:20:00,
2013-03-02 20:25:00,34.5,19.6,28.86,North,0,1.1,0.0,54,0.00,CLR,SKC,0.00,WeatherDisplay:10.37,2013-03-03 01:25:00,
2013-03-02 20:30:00,34.3,19.8,28.86,NW,315,0.0,0.0,55,0.00,CLR,SKC,0.00,WeatherDisplay:10.37,2013-03-03 01:30:00,
2013-03-02 20:35:00,34.5,19.6,28.86,NW,315,0.0,0.0,54,0.00,CLR,SKC,0.00,WeatherDisplay:10.37,2013-03-03 01:35:00,
2013-03-02 20:40:00,34.6,19.7,28.86,NNW,347,0.0,0.0,54,0.00,CLR,SKC,0.00,WeatherDisplay:10.37,2013-03-03 01:40:00,
2013-03-02 20:45:00,34.7,19.7,28.86,NE,45,1.1,0.0,54,0.00,CLR,SKC,0.00,WeatherDisplay:10.37,2013-03-03 01:45:00,
2013-03-02 20:50:00,34.7,19.7,28.86,North,5,0.0,1.0,54,0.00,CLR,SKC,0.00,WeatherDisplay:10.37,2013-03-03 01:50:00,
2013-03-02 20:55:00,34.5,19.6,28.87,NE,45,3.5,0.0,54,0.00,CLR,SKC,0.00,WeatherDisplay:10.37,2013-03-03 01:55:00,
2013-03-02 21:00:00,34.3,19.4,28.87,North,0,1.1,0.0,54,0.00,CLR,SKC,0.00,WeatherDisplay:10.37,2013-03-03 02:00:00,
2013-03-02 21:05:00,34.3,19.4,28.87,North,0,0.0,0.0,54,0.00,CLR,SKC,0.00,WeatherDisplay:10.37,2013-03-03 02:05:00,
2013-03-02 21:10:00,34.0,19.5,28.87,NW,315,1.1,0.0,55,0.00,CLR,SKC,0.00,WeatherDisplay:10.37,2013-03-03 02:10:00,
2013-03-02 21:15:00,34.0,19.5,28.87,SE,135,1.1,0.0,55,0.00,CLR,SKC,0.00,WeatherDisplay:10.37,2013-03-03 02:15:00,
2013-03-02 21:20:00,33.8,19.7,28.88,North,0,0.0,0.0,56,0.00,CLR,SKC,0.00,WeatherDisplay:10.37,2013-03-03 02:20:00,
2013-03-02 21:25:00,33.6,19.2,28.87,NW,315,1.1,0.0,55,0.00,CLR,SKC,0.00,WeatherDisplay:10.37,2013-03-03 02:25:00,
2013-03-02 21:30:00,33.6,19.2,28.87,West,270,1.1,0.0,55,0.00,CLR,SKC,0.00,WeatherDisplay:10.37,2013-03-03 02:30:00,
2013-03-02 21:35:00,33.6,19.2,28.88,SW,225,1.1,0.0,55,0.00,CLR,SKC,0.00,WeatherDisplay:10.37,2013-03-03 02:35:00,
2013-03-02 21:40:00,33.6,19.2,28.88,North,0,1.1,0.0,55,0.00,CLR,SKC,0.00,WeatherDisplay:10.37,2013-03-03 02:40:00,
2013-03-02 21:45:00,33.4,18.6,28.88,North,0,1.1,0.0,54,0.00,CLR,SKC,0.00,WeatherDisplay:10.37,2013-03-03 02:45:00,
2013-03-02 21:51:00,33.4,18.6,28.88,North,0,1.1,0.0,54,0.00,CLR,SKC,0.00,WeatherDisplay:10.37,2013-03-03 02:51:00,
2013-03-02 21:56:00,33.4,18.1,28.88,North,0,1.1,0.0,53,0.00,CLR,SKC,0.00,WeatherDisplay:10.37,2013-03-03 02:56:00,
2013-03-02 22:01:00,33.3,18.0,28.88,NE,45,1.1,0.0,53,0.00,CLR,SKC,0.00,WeatherDisplay:10.37,2013-03-03 03:01:00,
2013-03-02 22:06:00,33.3,18.4,28.88,NE,45,1.1,0.0,54,0.00,CLR,SKC,0.00,WeatherDisplay:10.37,2013-03-03 03:06:00,
2013-03-02 22:11:00,33.3,18.4,28.88,North,0,1.1,0.0,54,0.00,CLR,SKC,0.00,WeatherDisplay:10.37,2013-03-03 03:11:00,
2013-03-02 22:16:00,33.1,18.7,28.88,NE,45,1.1,0.0,55,0.00,CLR,SKC,0.00,WeatherDisplay:10.37,2013-03-03 03:16:00,
2013-03-02 22:21:00,33.1,18.7,28.88,North,0,1.1,0.0,55,0.00,CLR,SKC,0.00,WeatherDisplay:10.37,2013-03-03 03:21:00,
2013-03-02 22:26:00,32.9,18.5,28.88,North,0,1.1,0.0,55,0.00,CLR,SKC,0.00,WeatherDisplay:10.37,2013-03-03 03:26:00,
2013-03-02 22:31:00,32.9,18.5,28.88,North,0,1.1,0.0,55,0.00,CLR,SKC,0.00,WeatherDisplay:10.37,2013-03-03 03:31:00,
2013-03-02 22:36:00,32.7,18.3,28.88,WNW,292,1.1,0.0,55,0.00,CLR,SKC,0.00,WeatherDisplay:10.37,2013-03-03 03:36:00,
2013-03-02 22:41:00,32.5,18.1,28.88,North,0,1.1,0.0,55,0.00,CLR,SKC,0.00,WeatherDisplay:10.37,2013-03-03 03:41:00,
2013-03-02 22:46:00,32.5,18.1,28.88,North,0,1.1,0.0,55,0.00,CLR,SKC,0.00,WeatherDisplay:10.37,2013-03-03 03:46:00,
2013-03-02 22:51:00,32.4,18.0,28.88,North,0,1.1,0.0,55,0.00,CLR,SKC,0.00,WeatherDisplay:10.37,2013-03-03 03:51:00,
2013-03-02 22:56:00,32.2,17.8,28.88,SW,225,1.1,0.0,55,0.00,CLR,SKC,0.00,WeatherDisplay:10.37,2013-03-03 03:56:00,
2013-03-02 23:01:00,32.2,17.8,28.88,North,0,1.1,0.0,55,0.00,CLR,SKC,0.00,WeatherDisplay:10.37,2013-03-03 04:01:00,
2013-03-02 23:06:00,32.2,17.8,28.89,North,0,1.1,0.0,55,0.00,CLR,SKC,0.00,WeatherDisplay:10.37,2013-03-03 04:06:00,
2013-03-02 23:11:00,32.2,17.4,28.88,North,0,1.1,0.0,54,0.00,CLR,SKC,0.00,WeatherDisplay:10.37,2013-03-03 04:11:00,
2013-03-02 23:16:00,32.0,16.8,28.88,NE,45,1.1,0.0,53,0.00,CLR,SKC,0.00,WeatherDisplay:10.37,2013-03-03 04:16:00,
2013-03-02 23:21:00,31.8,17.0,28.88,North,0,1.1,0.0,54,0.00,CLR,SKC,0.00,WeatherDisplay:10.37,2013-03-03 04:21:00,
2013-03-02 23:26:00,31.8,17.0,28.88,North,0,1.1,0.0,54,0.00,CLR,SKC,0.00,WeatherDisplay:10.37,2013-03-03 04:26:00,
2013-03-02 23:31:00,31.6,16.9,28.89,North,0,1.1,0.0,54,0.00,CLR,SKC,0.00,WeatherDisplay:10.37,2013-03-03 04:31:00,
2013-03-02 23:36:00,31.5,16.3,28.88,North,2,1.1,0.0,53,0.00,CLR,SKC,0.00,WeatherDisplay:10.37,2013-03-03 04:36:00,
2013-03-02 23:41:00,31.3,17.0,28.89,NW,315,2.3,0.0,55,0.00,CLR,SKC,0.00,WeatherDisplay:10.37,2013-03-03 04:41:00,
2013-03-02 23:46:00,31.3,17.0,28.88,North,0,1.1,0.0,55,0.00,CLR,SKC,0.00,WeatherDisplay:10.37,2013-03-03 04:46:00,
2013-03-02 23:51:00,31.1,16.4,28.88,NW,315,2.3,2.3,54,0.00,CLR,SKC,0.00,WeatherDisplay:10.37,2013-03-03 04:51:00,
2013-03-02 23:56:00,30.9,16.2,28.88,SE,135,2.3,0.0,54,0.00,CLR,SKC,0.00,WeatherDisplay:10.37,2013-03-03 04:56:00,